createdAt,value
2019-04-07T00:01:59.429Z,19.53
2019-04-07T00:07:01.384Z,19.27
2019-04-07T00:12:03.304Z,22.83
2019-04-07T00:17:05.710Z,20.13
2019-04-07T00:22:07.888Z,20.30
2019-04-07T00:27:10.198Z,22.73
2019-04-07T00:32:12.336Z,17.70
2019-04-07T00:37:14.162Z,21.17
2019-04-07T00:42:16.044Z,21.53
2019-04-07T00:47:17.787Z,20.53
2019-04-07T00:52:21.504Z,22.07
2019-04-07T00:57:23.935Z,21.23
2019-04-07T01:02:26.029Z,22.07
2019-04-07T01:07:28.482Z,21.83
2019-04-07T01:12:30.276Z,18.57
2019-04-07T01:17:31.893Z,21.47
2019-04-07T01:22:34.618Z,19.57
2019-04-07T01:27:36.441Z,21.77
2019-04-07T01:32:38.859Z,18.97
2019-04-07T01:37:41.818Z,18.17
2019-04-07T01:42:56.975Z,18.00
2019-04-07T01:48:17.648Z,18.47
2019-04-07T01:53:26.436Z,17.03
2019-04-07T01:58:37.023Z,19.37
2019-04-07T02:04:07.228Z,17.80
2019-04-07T02:09:18.305Z,17.80
2019-04-07T02:14:35.526Z,16.97
2019-04-07T02:20:03.719Z,19.80
2019-04-07T02:25:15.059Z,18.53
2019-04-07T02:30:35.435Z,19.90
2019-04-07T02:35:43.237Z,17.33
2019-04-07T02:41:07.881Z,17.20
2019-04-07T02:46:31.279Z,17.43
2019-04-07T02:52:05.799Z,18.03
2019-04-07T02:57:33.868Z,19.53
2019-04-07T03:02:53.994Z,21.63
2019-04-07T03:08:18.442Z,19.17
2019-04-07T03:13:46.476Z,20.40
2019-04-07T03:18:53.249Z,19.93
2019-04-07T03:24:02.816Z,19.53
2019-04-07T03:29:24.252Z,19.50
2019-04-07T03:34:33.501Z,23.33
2019-04-07T03:39:58.879Z,21.60
2019-04-07T03:45:18.812Z,20.90
2019-04-07T03:50:26.879Z,16.30
2019-04-07T03:56:06.376Z,16.03
2019-04-07T04:01:33.972Z,18.57
2019-04-07T04:07:22.669Z,20.93
2019-04-07T04:12:22.739Z,19.77
2019-04-07T04:17:25.134Z,20.27
2019-04-07T04:22:28.963Z,22.10
2019-04-07T04:27:31.389Z,20.33
2019-04-07T04:32:33.353Z,16.53
2019-04-07T04:37:42.628Z,18.27
2019-04-07T04:42:38.897Z,20.90
2019-04-07T04:47:40.883Z,19.43
2019-04-07T04:52:42.935Z,17.87
2019-04-07T04:57:44.561Z,19.10
2019-04-07T05:02:46.868Z,17.73
2019-04-07T05:07:57.637Z,17.80
2019-04-07T05:12:52.602Z,18.87
2019-04-07T05:17:54.849Z,19.70
2019-04-07T05:22:56.582Z,18.07
2019-04-07T05:27:58.606Z,19.57
2019-04-07T05:33:00.962Z,18.10
2019-04-07T05:38:05.629Z,18.40
2019-04-07T05:43:07.177Z,18.13
2019-04-07T05:48:09.776Z,21.30
2019-04-07T05:53:14.607Z,21.33
2019-04-07T05:58:15.876Z,24.63
2019-04-07T06:03:17.808Z,25.07
2019-04-07T06:08:27.983Z,22.33
2019-04-07T06:13:23.699Z,23.10
2019-04-07T06:18:26.042Z,27.70
2019-04-07T06:23:29.838Z,27.73
2019-04-07T06:28:32.641Z,27.77
2019-04-07T06:33:37.629Z,28.23
2019-04-07T06:38:42.799Z,29.40
2019-04-07T06:43:41.974Z,30.57
2019-04-07T06:49:09.050Z,26.53
2019-04-07T06:54:28.971Z,28.43
2019-04-07T06:59:45.631Z,29.13
2019-04-07T07:05:02.939Z,30.80
2019-04-07T07:10:35.551Z,24.73
2019-04-07T07:15:55.613Z,26.33
2019-04-07T07:21:03.866Z,22.63
2019-04-07T07:26:06.051Z,21.57
2019-04-07T07:31:07.856Z,20.90
2019-04-07T07:36:09.593Z,20.40
2019-04-07T07:41:11.298Z,26.30
2019-04-07T07:46:13.111Z,23.57
2019-04-07T07:51:15.447Z,16.80
2019-04-07T07:56:18.168Z,14.37
2019-04-07T08:01:19.951Z,16.20
2019-04-07T08:06:24.094Z,13.80
2019-04-07T08:11:25.781Z,10.70
2019-04-07T08:16:31.074Z,10.47
2019-04-07T08:21:31.592Z,11.33
2019-04-07T08:26:33.591Z,10.57
2019-04-07T08:31:35.388Z,12.27
2019-04-07T08:36:38.026Z,12.73
2019-04-07T08:41:41.389Z,10.97
2019-04-07T08:46:44.379Z,11.57
2019-04-07T08:51:49.539Z,13.27
2019-04-07T08:56:51.104Z,12.18
2019-04-07T09:01:54.336Z,10.27
2019-04-07T09:06:59.371Z,11.97
2019-04-07T09:12:00.382Z,11.53
2019-04-07T09:17:11.577Z,12.23
2019-04-07T09:22:31.865Z,11.05
2019-04-07T09:27:41.104Z,11.75
2019-04-07T09:32:52.813Z,9.83
2019-04-07T09:38:12.795Z,9.83
2019-04-07T09:43:32.496Z,10.40
2019-04-07T09:49:12.200Z,10.30
2019-04-07T09:54:40.972Z,11.05
2019-04-07T10:00:14.530Z,10.53
2019-04-07T10:05:34.703Z,11.00
2019-04-07T10:10:50.805Z,9.30
2019-04-07T10:16:10.526Z,10.88
2019-04-07T10:21:31.164Z,10.65
2019-04-07T10:26:42.956Z,11.90
2019-04-07T10:32:16.668Z,14.78
2019-04-07T10:37:34.462Z,19.23
2019-04-07T10:42:59.700Z,23.02
2019-04-07T10:48:16.377Z,14.13
2019-04-07T10:53:52.776Z,13.48
2019-04-07T10:59:30.169Z,14.50
2019-04-07T11:04:58.424Z,13.85
2019-04-07T11:10:30.627Z,13.75
2019-04-07T11:15:44.410Z,16.95
2019-04-07T11:20:52.829Z,16.07
2019-04-07T11:26:13.470Z,16.95
2019-04-07T11:31:35.279Z,19.35
2019-04-07T11:36:52.846Z,14.23
2019-04-07T11:42:23.990Z,11.65
2019-04-07T11:47:38.063Z,12.18
2019-04-07T11:52:59.427Z,12.98
2019-04-07T11:58:26.014Z,10.82
2019-04-07T12:03:42.923Z,10.32
2019-04-07T12:09:06.513Z,10.53
2019-04-07T12:14:24.268Z,10.85
2019-04-07T12:19:37.228Z,10.75
2019-04-07T12:25:13.566Z,10.30
2019-04-07T12:30:38.011Z,10.58
2019-04-07T12:35:47.902Z,10.95
2019-04-07T12:41:14.385Z,13.58
2019-04-07T12:46:34.363Z,12.18
2019-04-07T12:51:56.073Z,11.12
2019-04-07T12:57:18.614Z,11.83
2019-04-07T13:02:36.798Z,12.20
2019-04-07T13:08:01.381Z,12.60
2019-04-07T13:13:35.204Z,12.20
2019-04-07T13:18:50.019Z,11.33
2019-04-07T13:23:59.426Z,13.85
2019-04-07T13:29:08.289Z,12.43
2019-04-07T13:34:31.078Z,17.17
2019-04-07T13:40:01.527Z,15.78
2019-04-07T13:45:26.843Z,12.68
2019-04-07T13:51:00.064Z,13.18
2019-04-07T13:56:11.936Z,13.88
2019-04-07T14:01:24.019Z,14.03
2019-04-07T14:06:31.292Z,13.43
2019-04-07T14:12:05.500Z,13.83
2019-04-07T14:17:12.085Z,12.53
2019-04-07T14:22:35.142Z,13.18
2019-04-07T14:27:59.543Z,11.90
2019-04-07T14:33:13.280Z,13.20
2019-04-07T14:38:32.317Z,12.33
2019-04-07T14:43:43.862Z,13.08
2019-04-07T14:49:04.429Z,13.08
2019-04-07T14:54:37.807Z,13.35
2019-04-07T14:59:44.985Z,14.80
2019-04-07T15:04:50.987Z,16.37
2019-04-07T15:09:57.824Z,18.17
2019-04-07T15:15:02.111Z,12.37
2019-04-07T15:20:04.678Z,13.65
2019-04-07T15:25:07.658Z,15.98
2019-04-07T15:30:13.314Z,14.68
2019-04-07T15:35:15.132Z,13.93
2019-04-07T15:40:18.126Z,15.63
2019-04-07T15:45:20.491Z,15.43
2019-04-07T15:50:29.224Z,14.87
2019-04-07T15:55:37.128Z,13.38
2019-04-07T16:00:32.348Z,13.70
2019-04-07T16:05:40.392Z,14.13
2019-04-07T16:10:37.985Z,12.98
2019-04-07T16:15:42.654Z,15.50
2019-04-07T16:20:43.259Z,14.50
2019-04-07T16:25:44.999Z,14.58
2019-04-07T16:30:49.376Z,17.75
2019-04-07T16:35:53.951Z,17.30
2019-04-07T16:40:53.885Z,16.80
2019-04-07T16:45:55.783Z,17.05
2019-04-07T16:50:57.401Z,17.32
2019-04-07T16:55:59.092Z,16.37
2019-04-07T17:01:01.264Z,16.35
2019-04-07T17:06:03.059Z,15.25
2019-04-07T17:11:07.690Z,17.07
2019-04-07T17:16:10.993Z,16.05
2019-04-07T17:21:16.250Z,15.95
2019-04-07T17:26:18.153Z,15.50
2019-04-07T17:31:30.040Z,17.80
2019-04-07T17:36:31.487Z,14.23
2019-04-07T17:41:33.870Z,14.35
2019-04-07T17:46:57.072Z,14.73
2019-04-07T17:52:15.359Z,16.12
2019-04-07T17:57:46.183Z,18.07
2019-04-07T18:03:07.566Z,16.55
2019-04-07T18:08:23.960Z,20.88
2019-04-07T18:13:57.623Z,16.12
2019-04-07T18:19:20.802Z,17.52
2019-04-07T18:24:30.840Z,16.67
2019-04-07T18:30:02.293Z,18.48
2019-04-07T18:35:16.494Z,19.10
2019-04-07T18:40:46.547Z,19.17
2019-04-07T18:46:10.574Z,24.02
2019-04-07T18:51:39.241Z,24.67
2019-04-07T18:56:59.785Z,21.57
2019-04-07T19:02:19.450Z,23.07
2019-04-07T19:07:41.741Z,26.00
2019-04-07T19:13:15.980Z,19.98
2019-04-07T19:18:43.740Z,22.20
2019-04-07T19:24:20.166Z,19.35
2019-04-07T19:29:43.061Z,17.80
2019-04-07T19:35:22.839Z,16.50
2019-04-07T19:40:43.203Z,17.50
2019-04-07T19:46:07.191Z,18.20
2019-04-07T19:51:26.684Z,17.43
2019-04-07T19:57:02.779Z,18.37
2019-04-07T20:02:24.093Z,22.07
2019-04-07T20:07:48.574Z,21.87
2019-04-07T20:13:09.147Z,17.37
2019-04-07T20:18:17.380Z,16.67
2019-04-07T20:23:33.093Z,20.60
2019-04-07T20:28:49.812Z,23.40
2019-04-07T20:34:02.176Z,18.33
2019-04-07T20:39:33.825Z,19.30
2019-04-07T20:45:14.224Z,18.00
2019-04-07T20:50:29.805Z,17.77
2019-04-07T20:55:56.708Z,19.67
2019-04-07T21:01:24.393Z,17.63
2019-04-07T21:06:44.202Z,18.63
2019-04-07T21:12:04.974Z,20.90
2019-04-07T21:17:28.763Z,20.47
2019-04-07T21:22:37.083Z,19.67
2019-04-07T21:27:57.256Z,15.60
2019-04-07T21:33:22.503Z,16.03
2019-04-07T21:38:52.542Z,17.43
2019-04-07T21:44:11.329Z,17.80
2019-04-07T21:49:22.312Z,14.47
2019-04-07T21:54:39.021Z,16.07
2019-04-07T21:59:54.188Z,15.30
2019-04-07T22:05:12.404Z,16.57
2019-04-07T22:10:14.213Z,14.27
2019-04-07T22:15:15.876Z,16.77
2019-04-07T22:20:18.927Z,19.63
2019-04-07T22:25:28.687Z,16.57
2019-04-07T22:30:30.606Z,17.30
2019-04-07T22:35:36.452Z,14.97
2019-04-07T22:40:37.959Z,14.23
2019-04-07T22:45:39.555Z,15.10
2019-04-07T22:50:41.354Z,14.57
2019-04-07T22:55:43.309Z,14.53
2019-04-07T23:00:45.001Z,18.63
2019-04-07T23:05:47.061Z,17.40
2019-04-07T23:10:49.731Z,14.00
2019-04-07T23:15:52.299Z,14.67
2019-04-07T23:20:54.127Z,15.97
2019-04-07T23:25:55.734Z,16.30
2019-04-07T23:30:57.366Z,20.97
2019-04-07T23:35:59.705Z,17.27
2019-04-07T23:41:01.415Z,13.10
2019-04-07T23:52:09.899Z,15.00
2019-04-07T23:57:11.455Z,15.80
